Terminal Aerodrome Forecast
Issued by NWS

Home | Current Version | Previous Version | Text Only | Print | Product List | Glossary On
Versions: 1 2 3 4 5 6 7 8 9 10 11 12 13 14 15 16
000
FTUS42 KTBW 252335
TAFRSW
TAF
KRSW 252335Z 2600/2624 24007KT P6SM SKC
     FM260600 20007KT P6SM SCT020 SCT250
     FM261400 26013G25KT P6SM SCT025 SCT250=

USA.gov is the U.S. government's official web portal to all federal, state and local government web resources and services.